createdAt,value
2018-09-04T11:01:44.553Z,50.22
2018-09-04T11:02:16.724Z,50.12
2018-09-04T11:02:48.736Z,50.42
2018-09-04T11:03:20.839Z,50.42
2018-09-04T11:03:52.956Z,50.51
2018-09-04T11:04:25.182Z,50.12
2018-09-04T11:04:57.284Z,50.22
2018-09-04T11:05:29.394Z,50.12
2018-09-04T11:06:01.637Z,50.44
2018-09-04T11:06:33.716Z,50.32
2018-09-04T11:07:05.859Z,50.44
2018-09-04T11:07:37.989Z,50.34
2018-09-04T11:08:10.121Z,50.15
2018-09-04T11:08:42.286Z,50.15
2018-09-04T11:09:14.478Z,50.05
2018-09-04T11:09:46.652Z,50.24
2018-09-04T11:10:18.674Z,50.15
2018-09-04T11:10:50.782Z,49.85
2018-09-04T11:11:22.835Z,49.85
2018-09-04T11:11:54.937Z,50.05
2018-09-04T11:12:27.039Z,50.17
2018-09-04T11:12:59.141Z,49.95
2018-09-04T11:13:31.248Z,49.68
2018-09-04T11:14:03.926Z,49.97
2018-09-04T11:14:36.190Z,49.97
2018-09-04T11:15:08.291Z,49.68
2018-09-04T11:16:59.882Z,49.77
2018-09-04T11:17:31.944Z,49.97
2018-09-04T11:18:04.050Z,49.68
2018-09-04T11:18:36.125Z,49.68
2018-09-04T11:19:08.218Z,49.6
2018-09-04T11:19:40.314Z,49.6
2018-09-04T11:20:12.419Z,49.6
2018-09-04T11:20:44.510Z,49.7
2018-09-04T11:21:16.566Z,49.6
2018-09-04T11:21:48.663Z,49.6
2018-09-04T11:22:20.780Z,49.6
2018-09-04T11:22:52.879Z,49.41
2018-09-04T11:23:24.993Z,49.33
2018-09-04T11:23:57.039Z,49.63
2018-09-04T11:24:29.132Z,49.33
2018-09-04T11:25:01.213Z,49.24
2018-09-04T11:25:33.293Z,49.24
2018-09-04T11:26:05.395Z,49.53
2018-09-04T11:26:37.592Z,49.33
2018-09-04T11:27:09.708Z,49.33
2018-09-04T11:27:41.800Z,49.14
2018-09-04T11:28:13.921Z,49.04
2018-09-04T11:28:46.008Z,49.16
2018-09-04T11:29:18.109Z,49.26
2018-09-04T11:29:50.211Z,49.16
2018-09-04T11:30:22.266Z,49.04
2018-09-04T11:32:13.686Z,48.97
2018-09-04T11:32:45.780Z,48.87
2018-09-04T11:33:17.880Z,48.77
2018-09-04T11:33:49.951Z,48.97
2018-09-04T11:35:41.284Z,48.7
2018-09-04T11:36:13.392Z,48.5
2018-09-04T11:36:45.460Z,48.7
2018-09-04T11:37:17.539Z,48.6
2018-09-04T11:37:49.586Z,48.6
2018-09-04T11:38:21.692Z,48.6
2018-09-04T11:40:13.402Z,48.52
2018-09-04T11:40:45.662Z,48.33
2018-09-04T11:41:17.634Z,48.23
2018-09-04T11:41:49.740Z,48.33
2018-09-04T11:42:21.862Z,48.23
2018-09-04T11:42:53.983Z,48.33
2018-09-04T11:43:26.044Z,48.03
2018-09-04T11:43:58.151Z,48.33
2018-09-04T11:44:30.218Z,48.03
2018-09-04T11:45:03.254Z,48.23
2018-09-04T11:45:35.382Z,48.25
2018-09-04T11:46:07.488Z,48.13
2018-09-04T11:46:39.591Z,48.06
2018-09-04T11:47:11.736Z,48.06
2018-09-04T11:47:43.803Z,47.77
